Time;durP1;ratioP1;P1;durP2;ratioP2;P2;SDS_P1;SDS_P2;PMS_P1;PMS_P2;Temp;Humidity;BMP_temperature;BMP_pressure;BME280_temperature;BME280_humidity;BME280_pressure;Samples;Min_cycle;Max_cycle;Signal;HPM_P1;HPM_P2
2023/07/04 00:01:04;;;;;;;13.43;5.10;;;21.00;86.10;;;;;;5032471;28;20468;-79
2023/07/04 00:03:32;;;;;;;8.83;3.73;;;21.00;86.00;;;;;;5027682;28;20461;-78
2023/07/04 00:05:59;;;;;;;9.00;4.67;;;20.90;85.90;;;;;;5018566;28;20511;-77
2023/07/04 00:08:29;;;;;;;5.83;4.13;;;20.90;86.00;;;;;;5031427;28;20786;-78
2023/07/04 00:10:58;;;;;;;7.00;4.10;;;20.90;86.30;;;;;;5035352;28;20557;-77
2023/07/04 00:13:27;;;;;;;11.10;6.97;;;20.90;86.40;;;;;;5034684;28;20464;-79
2023/07/04 00:15:55;;;;;;;6.93;5.60;;;20.80;86.70;;;;;;5035303;28;20482;-79
2023/07/04 00:18:24;;;;;;;6.73;4.73;;;20.80;86.80;;;;;;5035781;28;20467;-76
2023/07/04 00:20:54;;;;;;;10.40;4.60;;;20.80;86.90;;;;;;5035921;28;20471;-77
2023/07/04 00:23:22;;;;;;;10.63;4.30;;;20.80;86.90;;;;;;5033242;28;20460;-78
2023/07/04 00:25:52;;;;;;;8.20;4.43;;;20.70;87.00;;;;;;5035771;28;20485;-76
2023/07/04 00:28:21;;;;;;;6.80;4.50;;;20.70;87.30;;;;;;5035530;28;20550;-78
2023/07/04 00:30:51;;;;;;;5.77;4.00;;;20.70;87.20;;;;;;5035130;28;20472;-76
2023/07/04 00:33:20;;;;;;;4.47;4.07;;;20.70;87.30;;;;;;5035176;28;20463;-78
2023/07/04 00:35:47;;;;;;;7.50;4.37;;;20.70;87.50;;;;;;5035765;28;20476;-78
2023/07/04 00:38:16;;;;;;;5.73;4.70;;;20.70;88.00;;;;;;5034708;28;20472;-79
2023/07/04 00:40:50;;;;;;;6.20;4.27;;;20.70;88.10;;;;;;5035211;28;20464;-78
2023/07/04 00:43:19;;;;;;;7.23;4.20;;;20.70;88.10;;;;;;5035178;28;20486;-78
2023/07/04 00:45:52;;;;;;;7.67;4.13;;;20.60;88.00;;;;;;5035690;28;20472;-77
2023/07/04 00:48:19;;;;;;;5.40;4.60;;;20.60;87.90;;;;;;5035209;28;21016;-79
2023/07/04 00:51:02;;;;;;;5.10;3.77;;;20.60;88.00;;;;;;5035435;28;20537;-78
2023/07/04 00:53:30;;;;;;;8.43;4.13;;;20.60;88.20;;;;;;5035155;28;20483;-78
2023/07/04 00:55:58;;;;;;;8.63;4.03;;;20.60;88.10;;;;;;5035852;28;20480;-79
2023/07/04 00:58:31;;;;;;;5.60;4.10;;;20.50;88.20;;;;;;5034789;28;20518;-78
2023/07/04 01:00:58;;;;;;;4.27;3.77;;;20.60;88.40;;;;;;5034780;28;20478;-77
2023/07/04 01:03:25;;;;;;;7.47;4.27;;;20.60;88.40;;;;;;5034854;28;20483;-78
2023/07/04 01:06:00;;;;;;;8.37;4.77;;;20.60;88.50;;;;;;5034921;28;20479;-77
2023/07/04 01:08:32;;;;;;;8.87;5.33;;;20.60;88.20;;;;;;5034879;28;20472;-77
2023/07/04 01:11:03;;;;;;;9.53;4.67;;;20.60;88.40;;;;;;5035646;28;20919;-79
2023/07/04 01:13:35;;;;;;;7.80;4.80;;;20.50;88.40;;;;;;5034746;28;20479;-78
2023/07/04 01:16:03;;;;;;;8.17;4.73;;;20.50;88.10;;;;;;5034537;28;20946;-78
2023/07/04 01:18:30;;;;;;;4.63;3.97;;;20.50;88.40;;;;;;5034212;28;20468;-79
2023/07/04 01:20:58;;;;;;;5.43;3.97;;;20.50;88.40;;;;;;5034152;28;20472;-79
2023/07/04 01:23:35;;;;;;;7.20;4.23;;;20.50;88.40;;;;;;5034449;28;20545;-78
2023/07/04 01:26:17;;;;;;;7.60;5.23;;;20.50;88.50;;;;;;5034893;28;20476;-76
2023/07/04 01:28:47;;;;;;;4.63;3.97;;;20.50;88.20;;;;;;5024023;28;20472;-78
2023/07/04 01:31:16;;;;;;;6.70;4.43;;;20.40;88.10;;;;;;5033962;28;20468;-76
2023/07/04 01:33:48;;;;;;;7.10;4.80;;;20.50;88.20;;;;;;5033081;28;20500;-79
2023/07/04 01:36:17;;;;;;;6.10;4.40;;;20.50;88.40;;;;;;5034705;28;21005;-77
2023/07/04 01:38:45;;;;;;;8.10;4.87;;;20.50;88.40;;;;;;5033902;28;20483;-78
2023/07/04 01:41:16;;;;;;;8.20;5.60;;;20.50;88.50;;;;;;5024803;28;20483;-77
2023/07/04 01:43:50;;;;;;;7.50;4.40;;;20.40;88.20;;;;;;5033924;28;20468;-79
2023/07/04 01:46:18;;;;;;;7.70;4.33;;;20.40;88.50;;;;;;5023561;28;20480;-80
2023/07/04 01:48:47;;;;;;;4.40;3.40;;;20.40;88.70;;;;;;5034052;28;20475;-77
2023/07/04 01:51:15;;;;;;;6.50;4.03;;;20.40;88.80;;;;;;5034080;28;20477;-79
2023/07/04 01:53:42;;;;;;;6.13;4.17;;;20.40;88.80;;;;;;5033310;28;20491;-77
2023/07/04 01:56:09;;;;;;;7.27;4.67;;;20.50;88.90;;;;;;5034187;28;20483;-77
2023/07/04 01:58:37;;;;;;;9.10;5.43;;;20.50;88.90;;;;;;5033649;28;20468;-76
2023/07/04 02:01:04;;;;;;;6.10;4.77;;;20.50;89.20;;;;;;5034235;28;20974;-78
2023/07/04 02:03:32;;;;;;;7.07;4.80;;;20.50;89.10;;;;;;5034218;28;20980;-78
2023/07/04 02:05:59;;;;;;;9.50;4.50;;;20.50;89.10;;;;;;5033405;28;20460;-79
2023/07/04 02:08:26;;;;;;;7.97;5.23;;;20.40;89.10;;;;;;5034000;28;20483;-78
2023/07/04 02:10:53;;;;;;;6.87;4.27;;;20.50;89.30;;;;;;5033287;28;20543;-78
2023/07/04 02:13:31;;;;;;;4.63;4.03;;;20.50;89.50;;;;;;5034237;28;20479;-78
2023/07/04 02:15:59;;;;;;;10.00;4.37;;;20.50;89.50;;;;;;5033557;28;20460;-79
2023/07/04 02:18:27;;;;;;;5.97;4.03;;;20.50;89.50;;;;;;5033931;28;20463;-78
2023/07/04 02:20:54;;;;;;;10.23;4.57;;;20.50;89.60;;;;;;5032902;28;20480;-78
2023/07/04 02:23:21;;;;;;;6.63;4.40;;;20.40;89.20;;;;;;5033541;28;20954;-77
2023/07/04 02:25:52;;;;;;;8.10;4.03;;;20.40;89.50;;;;;;5033368;28;20525;-79
2023/07/04 02:28:24;;;;;;;6.37;4.13;;;20.40;89.70;;;;;;5033693;28;20475;-79
2023/07/04 02:30:55;;;;;;;5.83;4.53;;;20.40;89.90;;;;;;5032517;28;20468;-79
2023/07/04 02:33:23;;;;;;;6.63;5.23;;;20.40;89.90;;;;;;5032959;28;20464;-78
2023/07/04 02:35:51;;;;;;;6.10;4.17;;;20.40;90.00;;;;;;5032980;28;20993;-79
2023/07/04 02:38:19;;;;;;;7.90;5.60;;;20.40;90.00;;;;;;5033383;28;20985;-78
2023/07/04 02:40:46;;;;;;;4.93;4.40;;;20.40;90.00;;;;;;5032623;28;20476;-77
2023/07/04 02:43:14;;;;;;;7.00;4.20;;;20.40;90.00;;;;;;5033350;28;20795;-77
2023/07/04 02:45:41;;;;;;;8.20;4.00;;;20.40;90.10;;;;;;5032524;28;20472;-78
2023/07/04 02:48:10;;;;;;;6.50;4.50;;;20.40;90.10;;;;;;5033358;28;20476;-77
2023/07/04 02:50:38;;;;;;;9.40;5.77;;;20.40;90.20;;;;;;5033312;28;20464;-78
2023/07/04 02:53:05;;;;;;;8.47;4.30;;;20.40;90.20;;;;;;5033109;28;20456;-78
2023/07/04 02:55:32;;;;;;;7.97;5.53;;;20.40;90.30;;;;;;5032815;28;20579;-78
2023/07/04 02:57:59;;;;;;;5.07;4.00;;;20.40;90.30;;;;;;5032650;28;20495;-77
2023/07/04 03:00:26;;;;;;;6.60;4.70;;;20.40;90.30;;;;;;5033047;28;20468;-77
2023/07/04 03:02:53;;;;;;;7.87;4.57;;;20.40;90.40;;;;;;5033071;28;20464;-79
2023/07/04 03:05:20;;;;;;;7.53;5.03;;;20.30;90.40;;;;;;5033286;28;20864;-78
2023/07/04 03:07:49;;;;;;;6.13;4.30;;;20.30;90.50;;;;;;5032614;28;20491;-78
2023/07/04 03:10:16;;;;;;;6.60;4.70;;;20.30;90.60;;;;;;5033254;28;21021;-78
2023/07/04 03:12:43;;;;;;;7.70;4.20;;;20.30;90.60;;;;;;5032578;28;20472;-78
2023/07/04 03:15:10;;;;;;;7.00;4.47;;;20.30;90.60;;;;;;5032675;28;20949;-78
2023/07/04 03:17:38;;;;;;;7.90;5.20;;;20.30;90.50;;;;;;5033338;28;20521;-78
2023/07/04 03:20:09;;;;;;;6.60;4.60;;;20.30;90.60;;;;;;5032445;28;20460;-78
2023/07/04 03:22:37;;;;;;;6.70;4.90;;;20.30;90.60;;;;;;5033188;28;20551;-78
2023/07/04 03:25:06;;;;;;;5.57;4.73;;;20.30;90.60;;;;;;5032462;28;20464;-77
2023/07/04 03:27:34;;;;;;;8.13;5.70;;;20.30;90.60;;;;;;5032775;28;20476;-78
2023/07/04 03:30:01;;;;;;;8.73;5.13;;;20.30;90.60;;;;;;5031018;28;20472;-77
2023/07/04 03:32:28;;;;;;;8.63;5.57;;;20.40;90.80;;;;;;5032150;28;20557;-77
2023/07/04 03:35:01;;;;;;;7.03;4.80;;;20.40;90.90;;;;;;5021977;28;20468;-76
2023/07/04 03:37:28;;;;;;;6.10;4.60;;;20.40;91.00;;;;;;5033058;28;20487;-77
2023/07/04 03:39:59;;;;;;;7.93;5.07;;;20.40;91.10;;;;;;5032564;28;20468;-78
2023/07/04 03:42:27;;;;;;;7.90;5.43;;;20.40;91.10;;;;;;5032871;28;20482;-79
2023/07/04 03:44:54;;;;;;;5.80;4.87;;;20.40;91.30;;;;;;5035748;28;20550;-79
2023/07/04 03:47:21;;;;;;;7.63;5.53;;;20.40;91.30;;;;;;5037029;28;20798;-78
2023/07/04 03:49:48;;;;;;;9.43;5.90;;;20.30;91.20;;;;;;5036470;28;20534;-78
2023/07/04 03:52:16;;;;;;;12.23;4.97;;;20.30;91.30;;;;;;5036297;28;20472;-78
2023/07/04 03:54:46;;;;;;;6.80;5.17;;;20.30;91.80;;;;;;5036337;28;20496;-78
2023/07/04 03:57:13;;;;;;;7.67;4.77;;;20.30;91.50;;;;;;5035901;28;20914;-78
2023/07/04 03:59:41;;;;;;;6.97;5.23;;;20.30;91.60;;;;;;5036296;28;20476;-79
2023/07/04 04:02:08;;;;;;;8.80;5.03;;;20.30;91.60;;;;;;5026005;28;20468;-78
2023/07/04 04:04:38;;;;;;;5.43;4.80;;;20.20;91.40;;;;;;5034767;28;20495;-79
2023/07/04 04:07:07;;;;;;;6.93;5.10;;;20.20;91.40;;;;;;5035686;28;20464;-78
2023/07/04 04:09:36;;;;;;;9.57;5.73;;;20.20;91.40;;;;;;5036463;28;20474;-77
2023/07/04 04:12:04;;;;;;;7.03;4.73;;;20.10;91.40;;;;;;5035734;28;20962;-77
2023/07/04 04:14:33;;;;;;;7.33;5.00;;;20.20;91.40;;;;;;5036178;28;20499;-79
2023/07/04 04:17:03;;;;;;;5.67;4.57;;;20.20;91.40;;;;;;5034931;28;20470;-77
2023/07/04 04:19:30;;;;;;;6.60;4.50;;;20.20;91.40;;;;;;5036333;28;20464;-79
2023/07/04 04:21:57;;;;;;;7.07;4.77;;;20.10;91.30;;;;;;5035515;28;20480;-78
2023/07/04 04:24:24;;;;;;;5.50;4.90;;;20.10;91.20;;;;;;5035804;28;20464;-79
2023/07/04 04:26:51;;;;;;;8.37;5.70;;;20.10;91.30;;;;;;5035681;28;20499;-79
2023/07/04 04:29:20;;;;;;;7.80;5.27;;;20.10;91.30;;;;;;5035002;28;20452;-79
2023/07/04 04:31:47;;;;;;;7.43;4.87;;;20.10;91.30;;;;;;5035891;28;20856;-79
2023/07/04 04:34:17;;;;;;;8.97;6.53;;;20.20;91.20;;;;;;5035027;28;20468;-79
2023/07/04 04:36:44;;;;;;;8.30;5.17;;;20.30;91.30;;;;;;5035869;28;20472;-78
2023/07/04 04:39:11;;;;;;;10.47;5.10;;;20.30;91.30;;;;;;5035129;28;20468;-78
2023/07/04 04:41:38;;;;;;;6.60;4.90;;;20.30;91.30;;;;;;5035545;28;20480;-77
2023/07/04 04:44:05;;;;;;;10.43;5.10;;;20.30;91.30;;;;;;5034885;28;20839;-77
2023/07/04 04:46:34;;;;;;;9.07;4.43;;;20.40;91.30;;;;;;5035925;28;20547;-77
2023/07/04 04:49:02;;;;;;;8.73;5.97;;;20.40;91.40;;;;;;5034854;28;20500;-78
2023/07/04 04:51:31;;;;;;;7.30;5.17;;;20.40;91.30;;;;;;5035364;28;20468;-78
2023/07/04 04:54:01;;;;;;;7.20;5.20;;;20.40;91.40;;;;;;5035488;28;20495;-78
2023/07/04 04:56:28;;;;;;;7.60;4.70;;;20.40;91.40;;;;;;5033972;28;20464;-76
2023/07/04 04:58:56;;;;;;;9.43;5.53;;;20.50;91.50;;;;;;5035309;28;20526;-78
2023/07/04 05:01:24;;;;;;;6.27;5.20;;;20.60;91.40;;;;;;5035018;28;20563;-77
2023/07/04 05:03:54;;;;;;;7.83;5.30;;;20.60;91.40;;;;;;5035539;28;20840;-77
2023/07/04 05:06:23;;;;;;;7.20;6.03;;;20.70;91.30;;;;;;5023777;28;20484;-78
2023/07/04 05:08:53;;;;;;;17.70;6.57;;;20.70;91.30;;;;;;5034750;28;20492;-78
2023/07/04 05:11:21;;;;;;;7.47;5.40;;;20.70;91.20;;;;;;5034419;28;20464;-78
2023/07/04 05:13:52;;;;;;;8.57;5.37;;;20.70;91.10;;;;;;5034895;28;20472;-77
2023/07/04 05:16:22;;;;;;;7.40;5.43;;;20.80;91.20;;;;;;5034285;28;20541;-77
2023/07/04 05:18:51;;;;;;;8.10;5.67;;;20.70;91.20;;;;;;5034775;28;20494;-78
2023/07/04 05:21:20;;;;;;;6.60;5.23;;;20.70;91.60;;;;;;5034140;28;20530;-77
2023/07/04 05:23:49;;;;;;;7.10;4.70;;;20.70;91.30;;;;;;5035160;28;20471;-78
2023/07/04 05:26:21;;;;;;;9.00;5.37;;;20.80;91.20;;;;;;5034335;28;20472;-78
2023/07/04 05:28:50;;;;;;;13.33;5.30;;;20.80;91.20;;;;;;5034478;28;20560;-77
2023/07/04 05:31:22;;;;;;;8.43;5.80;;;20.90;91.20;;;;;;5034270;28;20809;-78
2023/07/04 05:33:49;;;;;;;8.13;5.33;;;21.00;91.30;;;;;;5034604;28;20530;-78
2023/07/04 05:36:24;;;;;;;10.57;6.10;;;21.00;91.30;;;;;;5023673;28;21002;-76
2023/07/04 05:38:52;;;;;;;10.97;6.77;;;21.00;91.40;;;;;;5036561;28;20470;-77
2023/07/04 05:41:26;;;;;;;9.80;6.33;;;21.00;91.40;;;;;;5034701;28;20522;-76
2023/07/04 05:43:57;;;;;;;12.53;6.80;;;21.10;91.60;;;;;;5033297;28;20492;-79
2023/07/04 05:46:27;;;;;;;17.40;9.10;;;21.10;91.40;;;;;;5033528;28;20480;-78
2023/07/04 05:48:54;;;;;;;10.00;6.80;;;21.20;91.50;;;;;;5025316;28;20465;-77
2023/07/04 05:51:22;;;;;;;11.43;5.40;;;21.30;91.60;;;;;;5034493;28;20530;-78
2023/07/04 05:53:52;;;;;;;7.97;5.23;;;21.30;91.60;;;;;;5034346;28;20529;-78
2023/07/04 05:56:22;;;;;;;6.60;4.93;;;21.30;91.60;;;;;;5033830;28;20471;-77
2023/07/04 05:58:52;;;;;;;8.40;5.73;;;21.40;91.60;;;;;;5034177;28;20464;-79
2023/07/04 06:01:22;;;;;;;4.57;4.13;;;21.50;91.40;;;;;;5023101;28;20468;-79
2023/07/04 06:03:49;;;;;;;7.03;5.13;;;21.50;91.20;;;;;;5034148;28;20863;-79
2023/07/04 06:06:19;;;;;;;7.00;4.27;;;21.50;91.30;;;;;;5033479;28;20503;-78
2023/07/04 06:08:47;;;;;;;7.83;4.20;;;21.50;91.40;;;;;;5033898;28;20546;-77
2023/07/04 06:11:15;;;;;;;9.20;4.60;;;21.60;91.40;;;;;;5033475;28;20549;-77
2023/07/04 06:13:43;;;;;;;8.33;4.50;;;21.50;91.20;;;;;;5033833;28;20823;-77
2023/07/04 06:16:11;;;;;;;6.73;4.30;;;21.50;91.20;;;;;;5033054;28;20480;-77
2023/07/04 06:18:39;;;;;;;5.50;4.57;;;21.60;91.20;;;;;;5033830;28;20541;-78
2023/07/04 06:21:07;;;;;;;8.20;4.50;;;21.70;91.10;;;;;;5032911;28;20564;-77
2023/07/04 06:23:34;;;;;;;6.97;3.80;;;21.80;91.30;;;;;;5033736;28;20491;-78
2023/07/04 06:26:03;;;;;;;5.50;3.80;;;21.90;91.30;;;;;;5033036;28;20476;-78
2023/07/04 06:28:30;;;;;;;4.97;3.93;;;21.90;91.30;;;;;;5033615;28;20475;-77
2023/07/04 06:30:57;;;;;;;5.00;3.73;;;22.00;91.30;;;;;;5033602;28;20529;-77
2023/07/04 06:33:26;;;;;;;4.90;3.17;;;22.00;91.20;;;;;;5033162;28;21227;-76
2023/07/04 06:35:56;;;;;;;6.13;3.60;;;22.10;91.20;;;;;;5033435;28;20495;-77
2023/07/04 06:38:24;;;;;;;4.60;3.07;;;22.20;90.80;;;;;;5032729;28;20498;-77
2023/07/04 06:41:00;;;;;;;3.93;3.53;;;22.40;90.70;;;;;;5033312;28;20973;-76
2023/07/04 06:43:30;;;;;;;4.93;3.90;;;22.50;90.60;;;;;;5032507;28;20529;-77
2023/07/04 06:45:58;;;;;;;6.13;3.37;;;22.60;90.40;;;;;;5033057;28;20477;-76
2023/07/04 06:48:28;;;;;;;9.83;3.70;;;22.70;90.30;;;;;;5032475;28;20460;-78
2023/07/04 06:51:00;;;;;;;5.00;3.57;;;22.80;90.40;;;;;;5033055;28;20522;-76
2023/07/04 06:53:28;;;;;;;7.03;4.13;;;22.90;90.40;;;;;;5032897;28;20460;-76
2023/07/04 06:56:04;;;;;;;4.43;3.57;;;22.90;90.10;;;;;;5033449;28;20510;-77
2023/07/04 06:58:31;;;;;;;6.00;3.60;;;23.10;89.70;;;;;;5032859;28;20514;-77
2023/07/04 07:00:58;;;;;;;7.03;4.53;;;23.10;88.60;;;;;;5032742;28;20503;-78
2023/07/04 07:03:26;;;;;;;4.57;3.30;;;23.20;88.40;;;;;;5022169;28;20472;-78
2023/07/04 07:05:53;;;;;;;5.37;2.90;;;23.10;88.60;;;;;;5032429;28;20476;-80
2023/07/04 07:08:20;;;;;;;6.53;3.27;;;23.10;88.60;;;;;;5032413;28;20476;-77
2023/07/04 07:10:56;;;;;;;5.67;3.40;;;23.20;88.00;;;;;;5033237;28;20468;-79
2023/07/04 07:13:24;;;;;;;5.13;3.00;;;23.20;88.70;;;;;;5032738;28;20475;-78
2023/07/04 07:15:51;;;;;;;7.10;3.60;;;23.30;89.50;;;;;;5032907;28;20472;-77
2023/07/04 07:18:19;;;;;;;4.07;2.70;;;23.40;88.60;;;;;;5032513;28;20506;-77
2023/07/04 07:20:58;;;;;;;3.33;2.50;;;23.50;88.00;;;;;;5037177;28;20468;-77
2023/07/04 07:23:25;;;;;;;3.73;2.53;;;23.60;87.80;;;;;;5036896;28;20533;-79
2023/07/04 07:26:01;;;;;;;5.17;3.30;;;23.70;87.30;;;;;;5036694;28;20511;-78
2023/07/04 07:28:30;;;;;;;6.93;3.63;;;23.80;87.10;;;;;;5036033;28;20529;-80
2023/07/04 07:31:03;;;;;;;5.53;3.20;;;23.70;87.10;;;;;;5036990;28;20471;-79
2023/07/04 07:33:37;;;;;;;6.50;3.30;;;23.60;87.10;;;;;;5036570;28;20472;-78
2023/07/04 07:36:15;;;;;;;4.00;3.60;;;23.60;87.30;;;;;;5037465;28;20860;-77
2023/07/04 07:38:42;;;;;;;5.03;3.77;;;23.40;87.30;;;;;;5026355;28;20882;-77
2023/07/04 07:41:09;;;;;;;6.67;3.30;;;23.30;87.00;;;;;;5036806;28;20478;-76
2023/07/04 07:43:38;;;;;;;4.77;3.00;;;23.30;87.30;;;;;;5036222;28;20496;-79
2023/07/04 07:46:07;;;;;;;7.23;4.00;;;23.30;87.20;;;;;;5037051;28;20555;-78
2023/07/04 07:48:36;;;;;;;9.53;3.87;;;23.20;86.50;;;;;;5025884;28;20476;-76
2023/07/04 07:51:06;;;;;;;6.87;3.70;;;23.30;86.40;;;;;;5036513;28;20471;-77
2023/07/04 07:53:35;;;;;;;4.23;3.43;;;23.20;86.30;;;;;;5036610;28;20474;-78
2023/07/04 07:56:09;;;;;;;10.07;3.43;;;23.20;86.30;;;;;;5036398;28;20780;-78
2023/07/04 07:58:37;;;;;;;4.23;3.87;;;23.10;86.80;;;;;;5036025;28;20472;-77
2023/07/04 08:01:15;;;;;;;4.50;3.73;;;23.20;86.90;;;;;;5036280;28;20468;-77
2023/07/04 08:03:43;;;;;;;7.07;5.00;;;23.20;86.80;;;;;;5035881;28;20851;-78
2023/07/04 08:06:10;;;;;;;6.57;4.73;;;23.30;86.70;;;;;;5036355;28;20478;-78
2023/07/04 08:08:39;;;;;;;6.13;3.10;;;23.40;86.60;;;;;;5025584;28;20618;-78
2023/07/04 08:11:13;;;;;;;5.73;2.30;;;23.50;85.60;;;;;;5035744;28;20477;-78
2023/07/04 08:13:40;;;;;;;4.33;2.93;;;23.60;85.00;;;;;;5035584;28;20469;-76
2023/07/04 08:16:08;;;;;;;5.13;3.10;;;23.70;84.50;;;;;;5035379;28;20551;-78
2023/07/04 08:18:35;;;;;;;6.60;3.57;;;23.80;84.00;;;;;;5035739;28;20482;-79
2023/07/04 08:21:08;;;;;;;5.23;3.20;;;23.80;84.00;;;;;;5036206;28;20468;-78
2023/07/04 08:23:35;;;;;;;4.30;3.30;;;23.90;83.80;;;;;;5035390;28;20547;-78
2023/07/04 08:26:03;;;;;;;6.67;3.13;;;24.00;83.50;;;;;;5036083;28;20522;-77
2023/07/04 08:28:31;;;;;;;5.73;3.70;;;24.20;83.90;;;;;;5035395;28;20471;-77
2023/07/04 08:31:05;;;;;;;7.00;3.67;;;24.10;83.10;;;;;;5035587;28;20474;-77
2023/07/04 08:33:32;;;;;;;5.37;3.07;;;24.10;82.70;;;;;;5035765;28;20525;-78
2023/07/04 08:36:01;;;;;;;3.40;3.10;;;24.10;82.70;;;;;;5035825;28;20835;-78
2023/07/04 08:38:29;;;;;;;4.73;3.50;;;24.20;82.80;;;;;;5035516;28;20526;-78
2023/07/04 08:40:57;;;;;;;5.93;3.10;;;24.00;82.30;;;;;;5035244;28;20538;-78
2023/07/04 08:43:40;;;;;;;3.13;2.83;;;24.00;82.40;;;;;;5035553;28;20504;-79
2023/07/04 08:46:08;;;;;;;4.77;3.13;;;23.90;82.30;;;;;;5034254;28;20808;-79
2023/07/04 08:48:43;;;;;;;7.00;3.90;;;23.70;82.20;;;;;;5035791;28;20464;-78
2023/07/04 08:51:15;;;;;;;7.03;3.37;;;23.50;82.20;;;;;;5034597;28;20476;-78
2023/07/04 08:53:46;;;;;;;5.03;4.10;;;23.60;83.10;;;;;;5034456;28;20529;-78
2023/07/04 08:56:18;;;;;;;5.33;2.93;;;23.60;82.90;;;;;;5034180;28;20488;-78
2023/07/04 08:58:53;;;;;;;5.03;2.77;;;23.50;82.00;;;;;;5024204;28;20476;-78
2023/07/04 09:01:33;;;;;;;5.23;2.87;;;23.60;82.30;;;;;;5034699;28;20459;-78
2023/07/04 09:04:05;;;;;;;6.60;3.23;;;23.70;82.10;;;;;;5022791;28;20471;-77
2023/07/04 09:06:46;;;;;;;3.27;2.77;;;23.70;81.30;;;;;;5035391;28;20961;-76
2023/07/04 09:09:31;;;;;;;6.80;3.20;;;23.60;80.10;;;;;;5034712;28;20468;-76
2023/07/04 09:12:02;;;;;;;5.63;2.90;;;23.50;80.20;;;;;;5035138;28;20530;-76
2023/07/04 09:14:38;;;;;;;3.50;2.43;;;23.60;80.10;;;;;;5034068;28;20555;-76
2023/07/04 09:17:15;;;;;;;4.00;2.97;;;23.60;80.50;;;;;;5034154;28;21057;-78
2023/07/04 09:19:47;;;;;;;5.13;2.50;;;23.80;80.60;;;;;;5035247;28;20467;-78
2023/07/04 09:22:14;;;;;;;4.00;2.83;;;24.00;79.70;;;;;;5034659;28;20476;-77
2023/07/04 09:24:44;;;;;;;3.40;2.43;;;24.10;79.00;;;;;;5034374;28;20483;-77
2023/07/04 09:27:14;;;;;;;3.73;3.03;;;24.20;78.60;;;;;;5034021;28;20533;-78
2023/07/04 09:29:45;;;;;;;4.30;3.13;;;24.10;79.20;;;;;;5035101;28;20530;-77
2023/07/04 09:32:19;;;;;;;5.10;3.10;;;24.20;78.80;;;;;;5033703;28;20469;-78
2023/07/04 09:34:50;;;;;;;6.40;3.60;;;24.20;78.70;;;;;;5033384;28;20472;-79
2023/07/04 09:37:22;;;;;;;7.10;3.70;;;24.20;78.20;;;;;;5034251;28;20854;-81
2023/07/04 09:39:51;;;;;;;5.27;2.83;;;24.20;77.60;;;;;;5026097;28;20498;-78
2023/07/04 09:42:20;;;;;;;4.17;2.57;;;24.00;77.90;;;;;;5033554;28;20838;-79
2023/07/04 09:44:56;;;;;;;4.83;2.97;;;23.90;77.90;;;;;;5034612;28;20471;-77
2023/07/04 09:47:27;;;;;;;6.50;3.57;;;24.00;77.90;;;;;;5033305;28;20505;-78
2023/07/04 09:50:10;;;;;;;6.77;3.20;;;24.00;77.60;;;;;;5034341;28;20796;-77
2023/07/04 09:52:38;;;;;;;4.30;3.07;;;24.00;78.20;;;;;;5033765;28;20475;-77
2023/07/04 09:55:13;;;;;;;3.30;2.37;;;24.00;78.40;;;;;;5034310;28;20945;-79
2023/07/04 09:57:40;;;;;;;6.37;3.27;;;24.00;78.40;;;;;;5034214;28;20539;-76
2023/07/04 10:00:22;;;;;;;7.53;2.90;;;24.00;78.20;;;;;;5034465;28;20471;-78
2023/07/04 10:02:52;;;;;;;3.60;2.47;;;24.10;77.40;;;;;;5005361;28;20535;-80
2023/07/04 10:05:30;;;;;;;8.53;3.00;;;24.10;76.10;;;;;;5028594;28;21005;-79
2023/07/04 10:08:06;;;;;;;7.37;2.67;;;24.20;76.00;;;;;;5026445;28;20515;-79
2023/07/04 10:10:35;;;;;;;3.83;2.87;;;24.10;75.70;;;;;;5015177;28;20503;-79
2023/07/04 10:13:02;;;;;;;5.33;2.50;;;24.20;76.30;;;;;;5032088;28;20460;-77
2023/07/04 10:15:43;;;;;;;4.07;3.10;;;24.20;75.60;;;;;;5030562;28;20466;-78
2023/07/04 10:18:25;;;;;;;4.20;2.93;;;24.30;74.70;;;;;;5023181;28;20478;-77
2023/07/04 10:20:56;;;;;;;4.53;2.40;;;24.30;73.10;;;;;;5032165;28;20774;-77
2023/07/04 10:23:26;;;;;;;4.03;2.37;;;24.20;73.20;;;;;;5028332;28;20494;-78
2023/07/04 10:25:55;;;;;;;5.10;2.73;;;24.30;73.40;;;;;;5013618;28;20479;-78
2023/07/04 10:28:26;;;;;;;2.67;2.47;;;24.30;73.50;;;;;;5022562;28;20494;-77
2023/07/04 10:31:06;;;;;;;5.13;2.27;;;24.30;72.10;;;;;;5028990;28;20557;-76
2023/07/04 10:33:38;;;;;;;4.10;1.77;;;24.30;71.60;;;;;;5021802;28;21076;-76
2023/07/04 10:36:09;;;;;;;3.60;2.93;;;24.30;71.30;;;;;;5031437;28;20514;-78
2023/07/04 10:38:42;;;;;;;5.00;2.80;;;24.10;70.80;;;;;;5031406;28;20547;-77
2023/07/04 10:41:18;;;;;;;6.97;3.00;;;24.20;71.70;;;;;;5024987;28;20953;-78
2023/07/04 10:43:51;;;;;;;5.10;2.30;;;24.20;71.60;;;;;;5025574;28;20477;-77
2023/07/04 10:46:23;;;;;;;3.20;2.20;;;24.30;72.30;;;;;;5033088;28;20459;-79
2023/07/04 10:48:55;;;;;;;4.77;2.57;;;24.30;72.50;;;;;;5033345;28;20538;-78
2023/07/04 10:51:28;;;;;;;5.70;2.13;;;24.30;73.80;;;;;;5022122;28;20464;-78
2023/07/04 10:53:55;;;;;;;2.97;2.03;;;24.40;73.10;;;;;;5022370;28;20480;-79
2023/07/04 10:56:26;;;;;;;3.47;2.03;;;24.30;72.90;;;;;;5027150;28;20453;-78
2023/07/04 10:59:06;;;;;;;4.07;2.50;;;24.30;73.70;;;;;;5027139;28;20944;-79
2023/07/04 11:01:38;;;;;;;5.50;2.73;;;24.30;74.00;;;;;;5022702;28;20887;-78
2023/07/04 11:04:11;;;;;;;6.50;2.77;;;24.40;74.20;;;;;;5029164;28;20479;-77
2023/07/04 11:06:43;;;;;;;5.70;3.43;;;24.40;74.70;;;;;;5022369;28;20934;-79
2023/07/04 11:09:15;;;;;;;5.30;3.40;;;24.20;74.10;;;;;;5024357;28;20507;-78
2023/07/04 11:11:46;;;;;;;5.87;3.00;;;24.10;74.30;;;;;;5032237;28;20460;-77
2023/07/04 11:14:19;;;;;;;2.43;2.00;;;24.00;75.10;;;;;;5031279;28;20491;-76
2023/07/04 11:16:48;;;;;;;9.50;3.60;;;23.90;75.30;;;;;;5030219;28;20460;-77
2023/07/04 11:19:19;;;;;;;6.10;2.50;;;23.80;76.20;;;;;;5028440;28;20552;-78
2023/07/04 11:22:11;;;;;;;5.10;2.40;;;23.70;76.10;;;;;;5031182;28;21009;-78
2023/07/04 11:24:43;;;;;;;6.70;4.00;;;23.60;76.40;;;;;;5013888;28;20551;-78
2023/07/04 11:27:14;;;;;;;8.93;3.60;;;23.50;77.10;;;;;;5028228;28;20461;-78
2023/07/04 11:29:53;;;;;;;6.70;3.40;;;23.60;77.30;;;;;;5027960;28;20480;-78
2023/07/04 11:32:25;;;;;;;5.20;3.53;;;23.40;77.30;;;;;;5028420;28;20480;-79
2023/07/04 11:34:55;;;;;;;6.40;3.57;;;23.40;77.60;;;;;;5031364;28;20527;-77
2023/07/04 11:37:31;;;;;;;5.03;3.53;;;23.40;78.00;;;;;;5032475;28;20488;-78
2023/07/04 11:40:18;;;;;;;4.30;3.90;;;23.30;77.80;;;;;;5030116;28;20849;-80
2023/07/04 11:42:48;;;;;;;7.70;4.13;;;23.30;77.80;;;;;;5029312;28;20475;-78
2023/07/04 11:45:21;;;;;;;7.60;3.60;;;23.30;78.30;;;;;;5032737;28;20469;-80
2023/07/04 11:47:53;;;;;;;3.93;3.00;;;23.10;77.90;;;;;;5031133;28;20492;-78
2023/07/04 11:50:23;;;;;;;5.50;3.63;;;23.10;77.80;;;;;;5027210;28;20822;-78
2023/07/04 11:52:57;;;;;;;6.50;3.33;;;23.00;77.90;;;;;;5028138;28;20974;-76
2023/07/04 11:55:30;;;;;;;5.80;3.90;;;23.00;78.00;;;;;;5028257;28;20488;-78
2023/07/04 11:58:03;;;;;;;6.70;5.60;;;23.00;78.30;;;;;;5025512;28;20856;-77
2023/07/04 12:00:56;;;;;;;7.13;5.47;;;23.10;79.70;;;;;;5029929;28;20530;-77
2023/07/04 12:04:00;;;;;;;7.13;3.83;;;23.30;79.00;;;;;;5025710;28;20975;-78
2023/07/04 12:07:04;;;;;;;8.60;4.37;;;23.30;78.30;;;;;;5015148;28;20492;-77
2023/07/04 12:09:37;;;;;;;9.00;4.50;;;23.50;78.60;;;;;;5015560;28;20464;-79
2023/07/04 12:12:07;;;;;;;7.53;4.73;;;23.60;77.90;;;;;;5029789;28;20474;-77
2023/07/04 12:14:37;;;;;;;6.23;4.57;;;23.60;78.30;;;;;;5021544;28;20872;-78
2023/07/04 12:17:06;;;;;;;7.63;3.50;;;23.60;77.30;;;;;;5031886;28;20558;-81
2023/07/04 12:19:33;;;;;;;6.20;4.30;;;23.50;77.60;;;;;;5022657;28;20471;-78
2023/07/04 12:22:00;;;;;;;5.40;4.53;;;23.60;77.20;;;;;;5025418;28;20530;-77
2023/07/04 12:24:29;;;;;;;7.00;4.00;;;23.70;77.20;;;;;;5015788;28;20512;-78
2023/07/04 12:26:58;;;;;;;8.70;5.30;;;23.80;77.30;;;;;;5015269;28;20475;-76
2023/07/04 12:29:26;;;;;;;5.63;3.60;;;23.90;77.40;;;;;;5024853;28;23670;-77
2023/07/04 12:32:06;;;;;;;6.10;5.60;;;24.00;78.10;;;;;;5020248;28;20540;-78
2023/07/04 12:34:34;;;;;;;8.83;7.07;;;24.10;78.70;;;;;;5035062;28;20472;-77
2023/07/04 12:37:05;;;;;;;6.93;4.07;;;24.30;77.70;;;;;;5035132;28;20468;-77
2023/07/04 12:40:19;;;;;;;7.27;3.93;;;24.40;76.90;;;;;;5031635;28;20482;-79
2023/07/04 12:42:50;;;;;;;6.87;5.67;;;24.50;76.10;;;;;;5031588;28;20468;-78
2023/07/04 12:45:22;;;;;;;14.40;8.83;;;24.50;76.50;;;;;;5030245;28;20506;-77
2023/07/04 12:48:02;;;;;;;7.60;5.00;;;24.50;76.30;;;;;;5034318;28;20468;-79
2023/07/04 12:50:30;;;;;;;6.13;4.67;;;24.50;76.10;;;;;;5035065;28;20542;-78
2023/07/04 12:52:57;;;;;;;6.20;4.70;;;24.60;75.90;;;;;;5034997;28;20482;-77
2023/07/04 12:55:30;;;;;;;4.80;4.30;;;24.50;75.80;;;;;;5032360;28;20488;-79
2023/07/04 12:57:59;;;;;;;9.63;8.67;;;24.50;75.80;;;;;;5035288;28;20554;-78
2023/07/04 13:00:30;;;;;;;11.40;10.07;;;24.50;76.30;;;;;;5033604;28;20452;-77
2023/07/04 13:02:59;;;;;;;16.47;12.60;;;24.50;76.10;;;;;;5032102;28;20526;-78